sensor_id;sensor_type;location;lat;lon;timestamp;temperature;humidity
31271;DHT22;17904;47.420;9.310;2022-07-29T00:02:27;15.60;99.90
31271;DHT22;17904;47.420;9.310;2022-07-29T00:04:54;15.60;99.90
31271;DHT22;17904;47.420;9.310;2022-07-29T00:07:21;15.50;99.90
31271;DHT22;17904;47.420;9.310;2022-07-29T00:09:48;15.50;99.90
31271;DHT22;17904;47.420;9.310;2022-07-29T00:12:19;15.50;99.90
31271;DHT22;17904;47.420;9.310;2022-07-29T00:14:54;15.50;99.90
31271;DHT22;17904;47.420;9.310;2022-07-29T00:17:21;15.50;99.90
31271;DHT22;17904;47.420;9.310;2022-07-29T00:19:48;15.50;99.90
31271;DHT22;17904;47.420;9.310;2022-07-29T00:22:15;15.50;99.90
31271;DHT22;17904;47.420;9.310;2022-07-29T00:24:42;15.50;99.90
31271;DHT22;17904;47.420;9.310;2022-07-29T00:27:08;15.50;99.90
31271;DHT22;17904;47.420;9.310;2022-07-29T00:29:35;15.50;99.90
31271;DHT22;17904;47.420;9.310;2022-07-29T00:32:02;15.50;99.90
31271;DHT22;17904;47.420;9.310;2022-07-29T00:34:30;15.50;99.90
31271;DHT22;17904;47.420;9.310;2022-07-29T00:37:15;15.40;99.90
31271;DHT22;17904;47.420;9.310;2022-07-29T00:39:42;15.40;99.90
31271;DHT22;17904;47.420;9.310;2022-07-29T00:42:09;15.40;99.90
31271;DHT22;17904;47.420;9.310;2022-07-29T00:44:38;15.40;99.90
31271;DHT22;17904;47.420;9.310;2022-07-29T00:47:05;15.40;99.90
31271;DHT22;17904;47.420;9.310;2022-07-29T00:49:33;15.30;99.90
31271;DHT22;17904;47.420;9.310;2022-07-29T00:52:04;15.30;99.90
31271;DHT22;17904;47.420;9.310;2022-07-29T00:54:32;15.30;99.90
31271;DHT22;17904;47.420;9.310;2022-07-29T00:57:00;15.20;99.90
31271;DHT22;17904;47.420;9.310;2022-07-29T00:59:28;15.20;99.90
31271;DHT22;17904;47.420;9.310;2022-07-29T01:02:02;15.10;99.90
31271;DHT22;17904;47.420;9.310;2022-07-29T01:04:30;15.10;99.90
31271;DHT22;17904;47.420;9.310;2022-07-29T01:06:57;15.10;99.90
31271;DHT22;17904;47.420;9.310;2022-07-29T01:09:26;15.10;99.90
31271;DHT22;17904;47.420;9.310;2022-07-29T01:12:18;15.10;99.90
31271;DHT22;17904;47.420;9.310;2022-07-29T01:14:46;15.10;99.90
31271;DHT22;17904;47.420;9.310;2022-07-29T01:17:21;15.10;99.90
31271;DHT22;17904;47.420;9.310;2022-07-29T01:20:12;15.10;99.90
31271;DHT22;17904;47.420;9.310;2022-07-29T01:28:47;15.10;99.90
31271;DHT22;17904;47.420;9.310;2022-07-29T01:31:20;15.20;99.90
31271;DHT22;17904;47.420;9.310;2022-07-29T01:34:06;15.20;99.90
31271;DHT22;17904;47.420;9.310;2022-07-29T01:36:38;15.20;99.90
31271;DHT22;17904;47.420;9.310;2022-07-29T01:39:23;15.10;99.90
31271;DHT22;17904;47.420;9.310;2022-07-29T01:42:11;15.10;99.90
31271;DHT22;17904;47.420;9.310;2022-07-29T01:44:52;15.10;99.90
31271;DHT22;17904;47.420;9.310;2022-07-29T01:47:25;15.10;99.90
31271;DHT22;17904;47.420;9.310;2022-07-29T01:49:54;15.10;99.90
31271;DHT22;17904;47.420;9.310;2022-07-29T01:52:31;15.00;99.90
31271;DHT22;17904;47.420;9.310;2022-07-29T01:55:06;15.00;99.90
31271;DHT22;17904;47.420;9.310;2022-07-29T01:57:36;15.00;99.90
31271;DHT22;17904;47.420;9.310;2022-07-29T02:00:05;15.00;99.90
31271;DHT22;17904;47.420;9.310;2022-07-29T02:02:40;15.00;99.90
31271;DHT22;17904;47.420;9.310;2022-07-29T02:05:10;15.00;99.90
31271;DHT22;17904;47.420;9.310;2022-07-29T02:07:40;15.00;99.90
31271;DHT22;17904;47.420;9.310;2022-07-29T02:10:08;15.00;99.90
31271;DHT22;17904;47.420;9.310;2022-07-29T02:12:36;15.00;99.90
31271;DHT22;17904;47.420;9.310;2022-07-29T02:15:05;15.10;99.90
31271;DHT22;17904;47.420;9.310;2022-07-29T02:17:46;15.10;99.90
31271;DHT22;17904;47.420;9.310;2022-07-29T02:20:16;15.10;99.90
31271;DHT22;17904;47.420;9.310;2022-07-29T02:22:44;15.00;99.90
31271;DHT22;17904;47.420;9.310;2022-07-29T02:25:12;15.00;99.90
31271;DHT22;17904;47.420;9.310;2022-07-29T02:27:41;15.00;99.90
31271;DHT22;17904;47.420;9.310;2022-07-29T02:30:09;15.00;99.90
31271;DHT22;17904;47.420;9.310;2022-07-29T02:32:39;15.00;99.90
31271;DHT22;17904;47.420;9.310;2022-07-29T02:35:08;15.00;99.90
31271;DHT22;17904;47.420;9.310;2022-07-29T02:37:37;15.00;99.90
31271;DHT22;17904;47.420;9.310;2022-07-29T02:40:07;14.90;99.90
31271;DHT22;17904;47.420;9.310;2022-07-29T02:42:36;14.80;99.90
31271;DHT22;17904;47.420;9.310;2022-07-29T02:45:05;14.80;99.90
31271;DHT22;17904;47.420;9.310;2022-07-29T02:47:39;14.80;99.90
31271;DHT22;17904;47.420;9.310;2022-07-29T02:52:41;14.70;99.90
31271;DHT22;17904;47.420;9.310;2022-07-29T02:55:19;14.70;99.90
31271;DHT22;17904;47.420;9.310;2022-07-29T02:58:05;14.70;99.90
31271;DHT22;17904;47.420;9.310;2022-07-29T03:00:37;14.60;99.90
31271;DHT22;17904;47.420;9.310;2022-07-29T03:03:09;14.70;99.90
31271;DHT22;17904;47.420;9.310;2022-07-29T03:05:37;14.70;99.90
31271;DHT22;17904;47.420;9.310;2022-07-29T03:08:07;14.70;99.90
31271;DHT22;17904;47.420;9.310;2022-07-29T03:10:37;14.70;99.90
31271;DHT22;17904;47.420;9.310;2022-07-29T03:13:06;14.80;99.90
31271;DHT22;17904;47.420;9.310;2022-07-29T03:15:35;14.80;99.90
31271;DHT22;17904;47.420;9.310;2022-07-29T03:18:02;14.80;99.90
31271;DHT22;17904;47.420;9.310;2022-07-29T03:20:29;14.80;99.90
31271;DHT22;17904;47.420;9.310;2022-07-29T03:22:56;14.80;99.90
31271;DHT22;17904;47.420;9.310;2022-07-29T03:25:22;14.80;99.90
31271;DHT22;17904;47.420;9.310;2022-07-29T03:27:49;14.80;99.90
31271;DHT22;17904;47.420;9.310;2022-07-29T03:30:16;14.80;99.90
31271;DHT22;17904;47.420;9.310;2022-07-29T03:32:48;14.80;99.90
31271;DHT22;17904;47.420;9.310;2022-07-29T03:35:19;14.90;99.90
31271;DHT22;17904;47.420;9.310;2022-07-29T03:37:46;14.90;99.90
31271;DHT22;17904;47.420;9.310;2022-07-29T03:40:22;14.90;99.90
31271;DHT22;17904;47.420;9.310;2022-07-29T03:42:51;15.00;99.90
31271;DHT22;17904;47.420;9.310;2022-07-29T03:45:20;14.90;99.90
31271;DHT22;17904;47.420;9.310;2022-07-29T03:47:55;14.90;99.90
31271;DHT22;17904;47.420;9.310;2022-07-29T03:50:28;14.90;99.90
31271;DHT22;17904;47.420;9.310;2022-07-29T03:52:56;14.90;99.90
31271;DHT22;17904;47.420;9.310;2022-07-29T03:55:24;14.90;99.90
31271;DHT22;17904;47.420;9.310;2022-07-29T03:57:51;14.90;99.90
31271;DHT22;17904;47.420;9.310;2022-07-29T04:00:18;14.90;99.90
31271;DHT22;17904;47.420;9.310;2022-07-29T04:02:46;14.90;99.90
31271;DHT22;17904;47.420;9.310;2022-07-29T04:05:16;14.90;99.90
31271;DHT22;17904;47.420;9.310;2022-07-29T04:07:47;15.00;99.90
31271;DHT22;17904;47.420;9.310;2022-07-29T04:10:17;15.00;99.90
31271;DHT22;17904;47.420;9.310;2022-07-29T04:12:59;15.00;99.90
31271;DHT22;17904;47.420;9.310;2022-07-29T04:15:26;15.00;99.90
31271;DHT22;17904;47.420;9.310;2022-07-29T04:17:57;15.00;99.90
31271;DHT22;17904;47.420;9.310;2022-07-29T04:20:24;15.10;99.90
31271;DHT22;17904;47.420;9.310;2022-07-29T04:22:52;15.10;99.90
31271;DHT22;17904;47.420;9.310;2022-07-29T04:25:18;15.10;99.90
31271;DHT22;17904;47.420;9.310;2022-07-29T04:27:45;15.10;99.90
31271;DHT22;17904;47.420;9.310;2022-07-29T04:30:28;15.20;99.90
31271;DHT22;17904;47.420;9.310;2022-07-29T04:32:55;15.20;99.90
31271;DHT22;17904;47.420;9.310;2022-07-29T04:35:22;15.30;99.90
31271;DHT22;17904;47.420;9.310;2022-07-29T04:37:49;15.30;99.90
31271;DHT22;17904;47.420;9.310;2022-07-29T04:40:15;15.30;99.90
31271;DHT22;17904;47.420;9.310;2022-07-29T04:42:42;15.30;99.90
31271;DHT22;17904;47.420;9.310;2022-07-29T04:45:13;15.40;99.90
31271;DHT22;17904;47.420;9.310;2022-07-29T04:47:41;15.40;99.90
31271;DHT22;17904;47.420;9.310;2022-07-29T04:50:09;15.40;99.90
31271;DHT22;17904;47.420;9.310;2022-07-29T04:52:36;15.40;99.90
31271;DHT22;17904;47.420;9.310;2022-07-29T04:55:04;15.50;99.90
31271;DHT22;17904;47.420;9.310;2022-07-29T04:57:31;15.50;99.90
31271;DHT22;17904;47.420;9.310;2022-07-29T04:59:58;15.50;99.90
31271;DHT22;17904;47.420;9.310;2022-07-29T05:02:25;15.50;99.90
31271;DHT22;17904;47.420;9.310;2022-07-29T05:04:52;15.60;99.90
31271;DHT22;17904;47.420;9.310;2022-07-29T05:07:18;15.60;99.90
31271;DHT22;17904;47.420;9.310;2022-07-29T05:09:45;15.60;99.90
31271;DHT22;17904;47.420;9.310;2022-07-29T05:12:12;15.60;99.90
31271;DHT22;17904;47.420;9.310;2022-07-29T05:14:38;15.60;99.90
31271;DHT22;17904;47.420;9.310;2022-07-29T05:17:05;15.70;99.90
31271;DHT22;17904;47.420;9.310;2022-07-29T05:19:32;15.70;99.90
31271;DHT22;17904;47.420;9.310;2022-07-29T05:22:05;15.70;99.90
31271;DHT22;17904;47.420;9.310;2022-07-29T05:24:32;15.80;99.90
31271;DHT22;17904;47.420;9.310;2022-07-29T05:26:58;15.80;99.90
31271;DHT22;17904;47.420;9.310;2022-07-29T05:29:25;15.80;99.90
31271;DHT22;17904;47.420;9.310;2022-07-29T05:32:12;15.90;99.90
31271;DHT22;17904;47.420;9.310;2022-07-29T05:34:39;15.90;99.90
31271;DHT22;17904;47.420;9.310;2022-07-29T05:37:18;15.90;99.90
31271;DHT22;17904;47.420;9.310;2022-07-29T05:39:45;16.00;99.90
31271;DHT22;17904;47.420;9.310;2022-07-29T05:42:14;16.00;99.90
31271;DHT22;17904;47.420;9.310;2022-07-29T05:44:41;16.00;99.90
31271;DHT22;17904;47.420;9.310;2022-07-29T05:47:08;15.90;99.90
31271;DHT22;17904;47.420;9.310;2022-07-29T05:49:35;15.90;99.90
31271;DHT22;17904;47.420;9.310;2022-07-29T05:52:01;15.90;99.90
31271;DHT22;17904;47.420;9.310;2022-07-29T05:54:28;15.90;99.90
31271;DHT22;17904;47.420;9.310;2022-07-29T05:56:55;15.90;99.90
31271;DHT22;17904;47.420;9.310;2022-07-29T05:59:22;15.90;99.90
31271;DHT22;17904;47.420;9.310;2022-07-29T06:01:55;15.90;99.90
31271;DHT22;17904;47.420;9.310;2022-07-29T06:04:24;16.00;99.90
31271;DHT22;17904;47.420;9.310;2022-07-29T06:06:51;16.00;99.90
31271;DHT22;17904;47.420;9.310;2022-07-29T06:09:17;16.00;99.90
31271;DHT22;17904;47.420;9.310;2022-07-29T06:11:44;16.10;99.90
31271;DHT22;17904;47.420;9.310;2022-07-29T06:14:11;16.10;99.90
31271;DHT22;17904;47.420;9.310;2022-07-29T06:16:38;16.30;99.90
31271;DHT22;17904;47.420;9.310;2022-07-29T06:19:05;16.30;99.90
31271;DHT22;17904;47.420;9.310;2022-07-29T06:21:32;16.40;99.90
31271;DHT22;17904;47.420;9.310;2022-07-29T06:24:00;16.40;99.90
31271;DHT22;17904;47.420;9.310;2022-07-29T06:26:27;16.40;99.90
31271;DHT22;17904;47.420;9.310;2022-07-29T06:28:57;16.40;99.90
31271;DHT22;17904;47.420;9.310;2022-07-29T06:31:23;16.40;99.90
31271;DHT22;17904;47.420;9.310;2022-07-29T06:33:50;16.50;99.90
31271;DHT22;17904;47.420;9.310;2022-07-29T06:36:20;16.50;99.90
31271;DHT22;17904;47.420;9.310;2022-07-29T06:38:49;16.60;99.90
31271;DHT22;17904;47.420;9.310;2022-07-29T06:41:17;16.70;99.90
31271;DHT22;17904;47.420;9.310;2022-07-29T06:43:45;16.90;99.90
31271;DHT22;17904;47.420;9.310;2022-07-29T06:46:21;17.00;99.90
31271;DHT22;17904;47.420;9.310;2022-07-29T06:48:49;17.20;99.90
31271;DHT22;17904;47.420;9.310;2022-07-29T06:51:17;17.30;99.90
31271;DHT22;17904;47.420;9.310;2022-07-29T06:53:51;17.50;99.90
31271;DHT22;17904;47.420;9.310;2022-07-29T06:56:38;17.70;99.90
31271;DHT22;17904;47.420;9.310;2022-07-29T06:59:09;17.90;99.90
31271;DHT22;17904;47.420;9.310;2022-07-29T07:01:37;18.00;99.90
31271;DHT22;17904;47.420;9.310;2022-07-29T07:04:04;18.20;99.90
31271;DHT22;17904;47.420;9.310;2022-07-29T07:06:31;18.30;99.90
31271;DHT22;17904;47.420;9.310;2022-07-29T07:08:58;18.40;99.90
31271;DHT22;17904;47.420;9.310;2022-07-29T07:11:24;18.60;99.90
31271;DHT22;17904;47.420;9.310;2022-07-29T07:13:51;18.70;99.90
31271;DHT22;17904;47.420;9.310;2022-07-29T07:16:18;18.80;99.90
31271;DHT22;17904;47.420;9.310;2022-07-29T07:18:45;18.90;99.90
31271;DHT22;17904;47.420;9.310;2022-07-29T07:21:12;19.00;99.90
31271;DHT22;17904;47.420;9.310;2022-07-29T07:23:45;19.10;99.90
31271;DHT22;17904;47.420;9.310;2022-07-29T07:26:12;19.30;99.90
31271;DHT22;17904;47.420;9.310;2022-07-29T07:28:39;19.40;99.90
31271;DHT22;17904;47.420;9.310;2022-07-29T07:31:06;19.50;99.90
31271;DHT22;17904;47.420;9.310;2022-07-29T07:33:32;19.60;99.90
31271;DHT22;17904;47.420;9.310;2022-07-29T07:35:59;19.70;99.90
31271;DHT22;17904;47.420;9.310;2022-07-29T07:38:26;19.70;99.90
31271;DHT22;17904;47.420;9.310;2022-07-29T07:40:53;19.80;99.90
31271;DHT22;17904;47.420;9.310;2022-07-29T07:43:20;19.80;99.90
31271;DHT22;17904;47.420;9.310;2022-07-29T07:45:46;19.80;99.90
31271;DHT22;17904;47.420;9.310;2022-07-29T07:48:13;19.80;99.90
31271;DHT22;17904;47.420;9.310;2022-07-29T07:50:40;19.80;99.90
31271;DHT22;17904;47.420;9.310;2022-07-29T07:53:07;19.80;99.90
31271;DHT22;17904;47.420;9.310;2022-07-29T07:55:33;19.80;99.90
31271;DHT22;17904;47.420;9.310;2022-07-29T07:58:25;19.70;99.90
31271;DHT22;17904;47.420;9.310;2022-07-29T08:00:52;19.70;99.90
31271;DHT22;17904;47.420;9.310;2022-07-29T08:03:19;19.60;99.90
31271;DHT22;17904;47.420;9.310;2022-07-29T08:05:46;19.60;99.90
31271;DHT22;17904;47.420;9.310;2022-07-29T08:08:13;19.50;99.90
31271;DHT22;17904;47.420;9.310;2022-07-29T08:10:40;19.40;99.90
31271;DHT22;17904;47.420;9.310;2022-07-29T08:13:26;19.30;99.90
31271;DHT22;17904;47.420;9.310;2022-07-29T08:15:58;19.30;99.90
31271;DHT22;17904;47.420;9.310;2022-07-29T08:18:30;19.20;99.90
31271;DHT22;17904;47.420;9.310;2022-07-29T08:20:58;19.20;99.90
31271;DHT22;17904;47.420;9.310;2022-07-29T08:23:25;19.20;99.90
31271;DHT22;17904;47.420;9.310;2022-07-29T08:26:13;19.20;99.90
31271;DHT22;17904;47.420;9.310;2022-07-29T08:28:42;19.30;99.90
31271;DHT22;17904;47.420;9.310;2022-07-29T08:31:13;19.40;99.90
31271;DHT22;17904;47.420;9.310;2022-07-29T08:33:41;19.40;99.90
31271;DHT22;17904;47.420;9.310;2022-07-29T08:36:08;19.60;99.90
31271;DHT22;17904;47.420;9.310;2022-07-29T08:38:35;19.70;99.90
31271;DHT22;17904;47.420;9.310;2022-07-29T08:41:02;19.80;99.90
31271;DHT22;17904;47.420;9.310;2022-07-29T08:43:30;19.80;99.90
31271;DHT22;17904;47.420;9.310;2022-07-29T08:45:56;19.80;99.90
31271;DHT22;17904;47.420;9.310;2022-07-29T08:48:24;19.90;99.90
31271;DHT22;17904;47.420;9.310;2022-07-29T08:50:54;19.90;99.90
31271;DHT22;17904;47.420;9.310;2022-07-29T08:53:24;20.00;99.90
31271;DHT22;17904;47.420;9.310;2022-07-29T08:55:53;20.00;99.90
31271;DHT22;17904;47.420;9.310;2022-07-29T08:58:21;20.00;99.90
31271;DHT22;17904;47.420;9.310;2022-07-29T09:00:55;20.10;99.90
31271;DHT22;17904;47.420;9.310;2022-07-29T09:03:25;20.10;99.90
31271;DHT22;17904;47.420;9.310;2022-07-29T09:05:54;20.10;99.90
31271;DHT22;17904;47.420;9.310;2022-07-29T09:08:21;20.10;99.90
31271;DHT22;17904;47.420;9.310;2022-07-29T09:10:49;20.10;99.90
31271;DHT22;17904;47.420;9.310;2022-07-29T09:13:16;20.00;99.90
31271;DHT22;17904;47.420;9.310;2022-07-29T09:15:43;19.90;99.90
31271;DHT22;17904;47.420;9.310;2022-07-29T09:18:10;19.80;99.90
31271;DHT22;17904;47.420;9.310;2022-07-29T09:20:56;19.80;99.90
31271;DHT22;17904;47.420;9.310;2022-07-29T09:23:59;19.60;99.90
31271;DHT22;17904;47.420;9.310;2022-07-29T09:26:30;19.50;99.90
31271;DHT22;17904;47.420;9.310;2022-07-29T09:28:58;19.40;99.90
31271;DHT22;17904;47.420;9.310;2022-07-29T09:31:37;19.30;99.90
31271;DHT22;17904;47.420;9.310;2022-07-29T09:34:04;19.10;99.90
31271;DHT22;17904;47.420;9.310;2022-07-29T09:36:42;19.10;99.90
31271;DHT22;17904;47.420;9.310;2022-07-29T09:39:09;18.90;99.90
31271;DHT22;17904;47.420;9.310;2022-07-29T09:41:50;18.70;99.90
31271;DHT22;17904;47.420;9.310;2022-07-29T09:44:20;18.60;99.90
31271;DHT22;17904;47.420;9.310;2022-07-29T09:46:58;18.50;99.90
31271;DHT22;17904;47.420;9.310;2022-07-29T09:49:25;18.40;99.90
31271;DHT22;17904;47.420;9.310;2022-07-29T09:52:03;18.40;99.90
31271;DHT22;17904;47.420;9.310;2022-07-29T09:54:31;18.40;99.90
31271;DHT22;17904;47.420;9.310;2022-07-29T09:57:08;18.30;99.90
31271;DHT22;17904;47.420;9.310;2022-07-29T09:59:39;18.40;99.90
31271;DHT22;17904;47.420;9.310;2022-07-29T10:02:16;18.30;99.90
31271;DHT22;17904;47.420;9.310;2022-07-29T10:04:49;18.40;99.90
31271;DHT22;17904;47.420;9.310;2022-07-29T10:07:16;18.40;99.90
31271;DHT22;17904;47.420;9.310;2022-07-29T10:09:53;18.40;99.90
31271;DHT22;17904;47.420;9.310;2022-07-29T10:12:21;18.40;99.90
31271;DHT22;17904;47.420;9.310;2022-07-29T10:14:49;18.40;99.90
31271;DHT22;17904;47.420;9.310;2022-07-29T10:17:17;18.40;99.90
31271;DHT22;17904;47.420;9.310;2022-07-29T10:19:45;18.40;99.90
31271;DHT22;17904;47.420;9.310;2022-07-29T10:22:12;18.60;99.90
31271;DHT22;17904;47.420;9.310;2022-07-29T10:24:40;18.70;99.90
31271;DHT22;17904;47.420;9.310;2022-07-29T10:27:08;18.80;99.90
31271;DHT22;17904;47.420;9.310;2022-07-29T10:29:35;19.10;99.90
31271;DHT22;17904;47.420;9.310;2022-07-29T10:32:37;19.30;99.90
31271;DHT22;17904;47.420;9.310;2022-07-29T10:38:21;19.70;99.90
31271;DHT22;17904;47.420;9.310;2022-07-29T10:41:05;19.90;99.90
31271;DHT22;17904;47.420;9.310;2022-07-29T10:44:04;20.10;99.90
31271;DHT22;17904;47.420;9.310;2022-07-29T10:46:37;20.30;99.90
31271;DHT22;17904;47.420;9.310;2022-07-29T10:49:23;20.40;99.90
31271;DHT22;17904;47.420;9.310;2022-07-29T10:57:25;20.70;99.90
31271;DHT22;17904;47.420;9.310;2022-07-29T11:02:44;20.90;99.90
31271;DHT22;17904;47.420;9.310;2022-07-29T11:05:15;21.10;99.90
31271;DHT22;17904;47.420;9.310;2022-07-29T11:10:47;21.80;99.90
31271;DHT22;17904;47.420;9.310;2022-07-29T11:16:12;22.60;99.90
31271;DHT22;17904;47.420;9.310;2022-07-29T11:21:41;23.20;99.90
31271;DHT22;17904;47.420;9.310;2022-07-29T11:24:29;23.50;99.90
31271;DHT22;17904;47.420;9.310;2022-07-29T11:29:56;24.00;99.90
31271;DHT22;17904;47.420;9.310;2022-07-29T11:32:25;24.20;99.90
31271;DHT22;17904;47.420;9.310;2022-07-29T11:35:18;24.20;99.90
31271;DHT22;17904;47.420;9.310;2022-07-29T11:38:25;24.20;99.90
31271;DHT22;17904;47.420;9.310;2022-07-29T11:41:24;24.20;99.90
31271;DHT22;17904;47.420;9.310;2022-07-29T11:43:58;24.20;99.90
31271;DHT22;17904;47.420;9.310;2022-07-29T11:46:44;24.20;99.90
31271;DHT22;17904;47.420;9.310;2022-07-29T11:49:13;24.10;99.90
31271;DHT22;17904;47.420;9.310;2022-07-29T11:51:52;24.10;99.90
31271;DHT22;17904;47.420;9.310;2022-07-29T11:54:24;24.10;99.90
31271;DHT22;17904;47.420;9.310;2022-07-29T11:57:13;24.20;99.90
31271;DHT22;17904;47.420;9.310;2022-07-29T11:59:43;24.40;99.40
31271;DHT22;17904;47.420;9.310;2022-07-29T12:02:10;24.40;99.90
31271;DHT22;17904;47.420;9.310;2022-07-29T12:04:58;24.60;99.90
31271;DHT22;17904;47.420;9.310;2022-07-29T12:07:30;24.70;99.90
31271;DHT22;17904;47.420;9.310;2022-07-29T12:10:02;24.80;99.90
31271;DHT22;17904;47.420;9.310;2022-07-29T12:12:32;24.90;99.90
31271;DHT22;17904;47.420;9.310;2022-07-29T12:15:14;24.90;99.90
31271;DHT22;17904;47.420;9.310;2022-07-29T12:17:42;24.80;99.90
31271;DHT22;17904;47.420;9.310;2022-07-29T12:20:09;24.80;96.70
31271;DHT22;17904;47.420;9.310;2022-07-29T12:22:39;24.60;94.10
31271;DHT22;17904;47.420;9.310;2022-07-29T12:25:11;24.50;98.40
31271;DHT22;17904;47.420;9.310;2022-07-29T12:28:12;24.40;99.90
31271;DHT22;17904;47.420;9.310;2022-07-29T12:30:50;24.40;99.90
31271;DHT22;17904;47.420;9.310;2022-07-29T12:33:26;24.30;99.90
31271;DHT22;17904;47.420;9.310;2022-07-29T12:35:57;24.20;99.90
31271;DHT22;17904;47.420;9.310;2022-07-29T12:38:34;24.20;99.90
31271;DHT22;17904;47.420;9.310;2022-07-29T12:41:02;24.10;99.90
31271;DHT22;17904;47.420;9.310;2022-07-29T12:43:30;24.00;99.90
31271;DHT22;17904;47.420;9.310;2022-07-29T12:45:57;23.90;99.90
31271;DHT22;17904;47.420;9.310;2022-07-29T12:48:39;23.70;99.90
31271;DHT22;17904;47.420;9.310;2022-07-29T12:51:07;23.50;99.90
31271;DHT22;17904;47.420;9.310;2022-07-29T12:53:36;23.50;99.90
31271;DHT22;17904;47.420;9.310;2022-07-29T12:56:04;23.40;99.90
31271;DHT22;17904;47.420;9.310;2022-07-29T12:58:51;23.30;99.90
31271;DHT22;17904;47.420;9.310;2022-07-29T13:01:18;23.20;99.90
31271;DHT22;17904;47.420;9.310;2022-07-29T13:03:57;23.20;99.90
31271;DHT22;17904;47.420;9.310;2022-07-29T13:06:39;23.10;99.90
31271;DHT22;17904;47.420;9.310;2022-07-29T13:11:44;22.90;99.90
31271;DHT22;17904;47.420;9.310;2022-07-29T13:14:38;22.80;99.90
31271;DHT22;17904;47.420;9.310;2022-07-29T13:17:17;22.80;99.90
31271;DHT22;17904;47.420;9.310;2022-07-29T13:19:49;22.90;99.90
31271;DHT22;17904;47.420;9.310;2022-07-29T13:22:21;22.90;99.90
31271;DHT22;17904;47.420;9.310;2022-07-29T13:25:00;23.00;99.90
31271;DHT22;17904;47.420;9.310;2022-07-29T13:27:31;23.10;99.90
31271;DHT22;17904;47.420;9.310;2022-07-29T13:30:00;23.20;99.90
31271;DHT22;17904;47.420;9.310;2022-07-29T13:32:29;23.20;99.90
31271;DHT22;17904;47.420;9.310;2022-07-29T13:34:57;23.10;99.90
31271;DHT22;17904;47.420;9.310;2022-07-29T13:37:24;23.10;99.90
31271;DHT22;17904;47.420;9.310;2022-07-29T13:39:52;23.10;99.90
31271;DHT22;17904;47.420;9.310;2022-07-29T13:42:20;23.20;99.90
31271;DHT22;17904;47.420;9.310;2022-07-29T13:44:47;23.20;99.90
31271;DHT22;17904;47.420;9.310;2022-07-29T13:47:18;23.20;99.90
31271;DHT22;17904;47.420;9.310;2022-07-29T13:49:45;23.20;99.90
31271;DHT22;17904;47.420;9.310;2022-07-29T13:52:12;23.20;99.90
31271;DHT22;17904;47.420;9.310;2022-07-29T13:54:39;23.20;99.90
31271;DHT22;17904;47.420;9.310;2022-07-29T13:57:09;23.20;99.90
31271;DHT22;17904;47.420;9.310;2022-07-29T13:59:38;23.20;99.90
31271;DHT22;17904;47.420;9.310;2022-07-29T14:02:06;23.10;99.90
31271;DHT22;17904;47.420;9.310;2022-07-29T14:04:33;23.10;99.90
31271;DHT22;17904;47.420;9.310;2022-07-29T14:07:00;23.00;99.90
31271;DHT22;17904;47.420;9.310;2022-07-29T14:09:29;22.90;99.90
31271;DHT22;17904;47.420;9.310;2022-07-29T14:12:07;22.90;99.90
31271;DHT22;17904;47.420;9.310;2022-07-29T14:14:34;22.80;99.90
31271;DHT22;17904;47.420;9.310;2022-07-29T14:17:03;22.70;99.90
31271;DHT22;17904;47.420;9.310;2022-07-29T14:19:30;22.60;99.90
31271;DHT22;17904;47.420;9.310;2022-07-29T14:21:58;22.50;99.90
31271;DHT22;17904;47.420;9.310;2022-07-29T14:24:26;22.40;99.90
31271;DHT22;17904;47.420;9.310;2022-07-29T14:26:52;22.20;99.90
31271;DHT22;17904;47.420;9.310;2022-07-29T14:29:19;22.10;99.90
31271;DHT22;17904;47.420;9.310;2022-07-29T14:31:46;21.90;99.90
31271;DHT22;17904;47.420;9.310;2022-07-29T14:34:13;21.70;99.90
31271;DHT22;17904;47.420;9.310;2022-07-29T14:36:42;21.50;99.90
31271;DHT22;17904;47.420;9.310;2022-07-29T14:39:09;21.40;99.90
31271;DHT22;17904;47.420;9.310;2022-07-29T14:41:35;21.30;99.90
31271;DHT22;17904;47.420;9.310;2022-07-29T14:44:02;21.20;99.90
31271;DHT22;17904;47.420;9.310;2022-07-29T14:46:29;21.20;99.90
31271;DHT22;17904;47.420;9.310;2022-07-29T14:48:56;21.10;99.90
31271;DHT22;17904;47.420;9.310;2022-07-29T14:51:23;21.00;99.90
31271;DHT22;17904;47.420;9.310;2022-07-29T14:53:58;21.00;99.90
31271;DHT22;17904;47.420;9.310;2022-07-29T14:56:25;21.00;99.90
31271;DHT22;17904;47.420;9.310;2022-07-29T14:59:12;21.00;99.90
31271;DHT22;17904;47.420;9.310;2022-07-29T15:01:38;20.90;99.90
31271;DHT22;17904;47.420;9.310;2022-07-29T15:04:05;20.90;99.90
31271;DHT22;17904;47.420;9.310;2022-07-29T15:06:32;20.80;99.90
31271;DHT22;17904;47.420;9.310;2022-07-29T15:08:59;20.70;99.90
31271;DHT22;17904;47.420;9.310;2022-07-29T15:11:26;20.70;99.90
31271;DHT22;17904;47.420;9.310;2022-07-29T15:13:52;20.50;99.90
31271;DHT22;17904;47.420;9.310;2022-07-29T15:16:19;20.40;99.90
31271;DHT22;17904;47.420;9.310;2022-07-29T15:18:46;20.20;99.90
31271;DHT22;17904;47.420;9.310;2022-07-29T15:21:13;20.10;99.90
31271;DHT22;17904;47.420;9.310;2022-07-29T15:23:40;20.00;99.90
31271;DHT22;17904;47.420;9.310;2022-07-29T15:26:07;19.90;99.90
31271;DHT22;17904;47.420;9.310;2022-07-29T15:28:33;19.70;99.90
31271;DHT22;17904;47.420;9.310;2022-07-29T15:31:00;19.60;99.90
31271;DHT22;17904;47.420;9.310;2022-07-29T15:33:27;19.50;99.90
31271;DHT22;17904;47.420;9.310;2022-07-29T15:35:56;19.40;99.90
31271;DHT22;17904;47.420;9.310;2022-07-29T15:38:23;19.30;99.90
31271;DHT22;17904;47.420;9.310;2022-07-29T15:40:54;19.20;99.90
31271;DHT22;17904;47.420;9.310;2022-07-29T15:43:22;19.10;99.90
31271;DHT22;17904;47.420;9.310;2022-07-29T15:45:49;19.10;99.90
31271;DHT22;17904;47.420;9.310;2022-07-29T15:48:38;19.00;99.90
31271;DHT22;17904;47.420;9.310;2022-07-29T15:51:05;19.00;99.90
31271;DHT22;17904;47.420;9.310;2022-07-29T15:53:32;19.00;99.90
31271;DHT22;17904;47.420;9.310;2022-07-29T15:56:01;18.90;99.90
31271;DHT22;17904;47.420;9.310;2022-07-29T15:58:28;18.90;99.90
31271;DHT22;17904;47.420;9.310;2022-07-29T16:00:55;18.80;99.90
31271;DHT22;17904;47.420;9.310;2022-07-29T16:03:21;18.70;99.90
31271;DHT22;17904;47.420;9.310;2022-07-29T16:05:48;18.70;99.90
31271;DHT22;17904;47.420;9.310;2022-07-29T16:08:15;18.70;99.90
31271;DHT22;17904;47.420;9.310;2022-07-29T16:10:42;18.60;99.90
31271;DHT22;17904;47.420;9.310;2022-07-29T16:13:09;18.60;99.90
31271;DHT22;17904;47.420;9.310;2022-07-29T16:15:42;18.60;99.90
31271;DHT22;17904;47.420;9.310;2022-07-29T16:18:09;18.60;99.90
31271;DHT22;17904;47.420;9.310;2022-07-29T16:20:36;18.50;99.90
31271;DHT22;17904;47.420;9.310;2022-07-29T16:23:03;18.50;99.90
31271;DHT22;17904;47.420;9.310;2022-07-29T16:25:29;18.40;99.90
31271;DHT22;17904;47.420;9.310;2022-07-29T16:28:16;18.40;99.90